createdAt,value
2022-08-24T00:00:03.109Z,24.80
2022-08-24T00:00:18.546Z,24.90
2022-08-24T00:00:30.503Z,24.90
2022-08-24T00:00:42.267Z,24.90
2022-08-24T00:00:54.525Z,24.80
2022-08-24T00:01:10.879Z,24.90
2022-08-24T00:01:22.724Z,24.80
2022-08-24T00:01:34.516Z,24.80
2022-08-24T00:01:46.570Z,24.80
2022-08-24T00:01:58.574Z,24.80
2022-08-24T00:02:11.899Z,24.80
2022-08-24T00:02:24.187Z,24.80
2022-08-24T00:02:36.136Z,24.80
2022-08-24T00:02:48.780Z,24.80
2022-08-24T00:03:01.182Z,24.80
2022-08-24T00:03:13.439Z,24.80
2022-08-24T00:03:25.410Z,24.80
2022-08-24T00:03:46.070Z,24.80
2022-08-24T00:03:59.611Z,24.80
2022-08-24T00:04:11.443Z,24.80
2022-08-24T00:04:28.247Z,24.80
2022-08-24T00:04:40.260Z,24.80
2022-08-24T00:04:52.718Z,24.80
2022-08-24T00:05:04.945Z,24.80
2022-08-24T00:05:17.748Z,24.80
2022-08-24T00:05:29.762Z,24.80
2022-08-24T00:05:41.576Z,24.70
2022-08-24T00:05:53.741Z,24.80
2022-08-24T00:06:07.258Z,24.80
2022-08-24T00:06:21.135Z,24.80
2022-08-24T00:06:33.659Z,24.80
2022-08-24T00:06:45.403Z,24.80
2022-08-24T00:06:57.161Z,24.80
2022-08-24T00:07:18.011Z,24.80
2022-08-24T00:07:39.346Z,24.80
2022-08-24T00:07:51.158Z,24.80
2022-08-24T00:08:03.581Z,24.80
2022-08-24T00:08:15.540Z,24.80
2022-08-24T00:08:27.462Z,24.80
2022-08-24T00:08:39.432Z,24.80
2022-08-24T00:08:52.002Z,24.80
2022-08-24T00:09:04.258Z,24.80
2022-08-24T00:09:16.890Z,24.80
2022-08-24T00:09:29.584Z,24.80
2022-08-24T00:09:41.491Z,24.70
2022-08-24T00:09:53.652Z,24.80
2022-08-24T00:10:07.153Z,24.80
2022-08-24T00:10:19.362Z,24.80
2022-08-24T00:10:31.217Z,24.80
2022-08-24T00:10:43.070Z,24.80
2022-08-24T00:10:54.873Z,24.80
2022-08-24T00:11:07.218Z,24.80
2022-08-24T00:11:19.157Z,24.80
2022-08-24T00:11:31.231Z,24.70
2022-08-24T00:11:43.022Z,24.80
2022-08-24T00:11:54.844Z,24.80
2022-08-24T00:12:06.766Z,24.80
2022-08-24T00:12:19.616Z,24.80
2022-08-24T00:12:32.253Z,24.80
2022-08-24T00:12:44.009Z,24.80
2022-08-24T00:12:55.746Z,24.80
2022-08-24T00:13:07.539Z,24.70
2022-08-24T00:13:20.216Z,24.70
2022-08-24T00:13:32.582Z,24.70
2022-08-24T00:13:48.584Z,24.70
2022-08-24T00:14:00.448Z,24.70
2022-08-24T00:14:12.235Z,24.70
2022-08-24T00:14:24.418Z,24.70
2022-08-24T00:14:36.225Z,24.70
2022-08-24T00:14:49.383Z,24.70
2022-08-24T00:15:01.294Z,24.70
2022-08-24T00:15:13.678Z,24.70
2022-08-24T00:15:25.515Z,24.70
2022-08-24T00:15:37.314Z,24.70
2022-08-24T00:15:49.146Z,24.70
2022-08-24T00:16:00.865Z,24.60
2022-08-24T00:16:12.812Z,24.60
2022-08-24T00:16:24.783Z,24.70
2022-08-24T00:16:36.657Z,24.70
2022-08-24T00:16:48.503Z,24.70
2022-08-24T00:17:00.549Z,24.70
2022-08-24T00:17:12.397Z,24.70
2022-08-24T00:17:24.171Z,24.70
2022-08-24T00:17:35.933Z,24.70
2022-08-24T00:17:47.650Z,24.70
2022-08-24T00:17:59.789Z,24.70
2022-08-24T00:18:11.918Z,24.70
2022-08-24T00:18:26.206Z,24.60
2022-08-24T00:18:38.361Z,24.60
2022-08-24T00:18:50.131Z,24.60
2022-08-24T00:19:01.900Z,24.60
2022-08-24T00:19:13.749Z,24.70
2022-08-24T00:19:25.657Z,24.70
2022-08-24T00:19:37.433Z,24.70
2022-08-24T00:19:49.936Z,24.70
2022-08-24T00:20:02.671Z,24.70
2022-08-24T00:20:14.595Z,24.70
2022-08-24T00:20:26.672Z,24.70
2022-08-24T00:20:40.033Z,24.60
2022-08-24T00:20:55.150Z,24.70
2022-08-24T00:21:08.159Z,24.70
2022-08-24T00:21:19.982Z,24.70
2022-08-24T00:21:31.833Z,24.70
2022-08-24T00:21:43.687Z,24.70
2022-08-24T00:21:55.517Z,24.70
2022-08-24T00:22:07.291Z,24.60
2022-08-24T00:22:19.106Z,24.60
2022-08-24T00:22:30.851Z,24.60
2022-08-24T00:22:42.682Z,24.60
2022-08-24T00:22:54.450Z,24.60
2022-08-24T00:23:06.590Z,24.60
2022-08-24T00:23:18.322Z,24.70
2022-08-24T00:23:30.081Z,24.70
2022-08-24T00:23:41.855Z,24.70
2022-08-24T00:23:53.842Z,24.70
2022-08-24T00:24:05.666Z,24.60
2022-08-24T00:24:17.517Z,24.60
2022-08-24T00:24:29.300Z,24.60
2022-08-24T00:24:41.397Z,24.60
2022-08-24T00:24:53.160Z,24.60
2022-08-24T00:25:05.436Z,24.60
2022-08-24T00:25:19.482Z,24.60
2022-08-24T00:25:31.514Z,24.60
2022-08-24T00:25:43.285Z,24.60
2022-08-24T00:25:55.095Z,24.60
2022-08-24T00:26:07.256Z,24.60
2022-08-24T00:26:28.691Z,24.60
2022-08-24T00:26:41.085Z,24.60
2022-08-24T00:26:54.004Z,24.60
2022-08-24T00:27:06.623Z,24.60
2022-08-24T00:27:18.518Z,24.60
2022-08-24T00:27:30.340Z,24.60
2022-08-24T00:27:42.157Z,24.60
2022-08-24T00:27:53.960Z,24.60
2022-08-24T00:28:05.938Z,24.60
2022-08-24T00:28:17.683Z,24.50
2022-08-24T00:28:30.275Z,24.60
2022-08-24T00:28:42.015Z,24.50
2022-08-24T00:28:53.995Z,24.50
2022-08-24T00:29:07.741Z,24.60
2022-08-24T00:29:19.776Z,24.50
2022-08-24T00:29:31.573Z,24.50
2022-08-24T00:29:43.344Z,24.50
2022-08-24T00:29:55.723Z,24.60
2022-08-24T00:30:09.754Z,24.50
2022-08-24T00:30:21.577Z,24.50
2022-08-24T00:30:33.560Z,24.50
2022-08-24T00:30:45.396Z,24.50
2022-08-24T00:30:57.165Z,24.50
2022-08-24T00:31:08.917Z,24.50
2022-08-24T00:31:20.885Z,24.50
2022-08-24T00:31:32.700Z,24.60
2022-08-24T00:31:44.503Z,24.50
2022-08-24T00:31:56.394Z,24.60
2022-08-24T00:32:08.250Z,24.50
2022-08-24T00:32:19.999Z,24.50
2022-08-24T00:32:32.252Z,24.60
2022-08-24T00:32:44.808Z,24.60
2022-08-24T00:32:56.757Z,24.50
2022-08-24T00:33:08.526Z,24.50
2022-08-24T00:33:20.616Z,24.50
2022-08-24T00:33:32.677Z,24.50
2022-08-24T00:33:44.451Z,24.50
2022-08-24T00:33:56.457Z,24.50
2022-08-24T00:34:08.394Z,24.50
2022-08-24T00:34:20.220Z,24.50
2022-08-24T00:34:32.580Z,24.50
2022-08-24T00:34:58.389Z,24.50
2022-08-24T00:35:12.026Z,24.50
2022-08-24T00:35:24.207Z,24.50
2022-08-24T00:35:36.394Z,24.50
2022-08-24T00:35:48.316Z,24.50
2022-08-24T00:36:00.166Z,24.50
2022-08-24T00:36:11.908Z,24.50
2022-08-24T00:36:24.867Z,24.50
2022-08-24T00:36:36.733Z,24.50
2022-08-24T00:36:48.481Z,24.50
2022-08-24T00:37:00.233Z,24.50
2022-08-24T00:37:11.985Z,24.50
2022-08-24T00:37:24.227Z,24.50
2022-08-24T00:37:36.577Z,24.50
2022-08-24T00:37:48.954Z,24.50
2022-08-24T00:38:00.726Z,24.50
2022-08-24T00:38:12.512Z,24.50
2022-08-24T00:38:24.308Z,24.50
2022-08-24T00:38:39.604Z,24.50
2022-08-24T00:38:51.472Z,24.40
2022-08-24T00:39:03.892Z,24.50
2022-08-24T00:39:15.656Z,24.40
2022-08-24T00:39:27.406Z,24.50
2022-08-24T00:39:39.243Z,24.50
2022-08-24T00:39:51.440Z,24.40
2022-08-24T00:40:11.456Z,24.40
2022-08-24T00:40:34.775Z,24.40
2022-08-24T00:40:47.633Z,24.40
2022-08-24T00:40:59.529Z,24.40
2022-08-24T00:41:11.271Z,24.40
2022-08-24T00:41:23.038Z,24.40
2022-08-24T00:41:35.116Z,24.40
2022-08-24T00:41:50.618Z,24.40
2022-08-24T00:42:02.508Z,24.40
2022-08-24T00:42:14.271Z,24.40
2022-08-24T00:42:26.223Z,24.40
2022-08-24T00:42:39.500Z,24.40
2022-08-24T00:42:51.642Z,24.30
2022-08-24T00:43:05.177Z,24.30
2022-08-24T00:43:22.085Z,24.30
2022-08-24T00:43:33.823Z,24.30
2022-08-24T00:43:57.285Z,24.40
2022-08-24T00:44:10.252Z,24.30
2022-08-24T00:44:23.151Z,24.30
2022-08-24T00:44:34.876Z,24.30
2022-08-24T00:44:46.668Z,24.30
2022-08-24T00:44:58.592Z,24.30
2022-08-24T00:45:12.760Z,24.30
2022-08-24T00:45:25.008Z,24.30
2022-08-24T00:46:03.965Z,24.30
2022-08-24T00:46:28.962Z,24.30
2022-08-24T00:46:56.705Z,24.30
2022-08-24T00:47:18.636Z,24.30
2022-08-24T00:47:34.702Z,24.30
2022-08-24T00:47:55.132Z,24.30
2022-08-24T00:48:12.041Z,24.30
2022-08-24T00:48:27.233Z,24.30
2022-08-24T00:48:41.445Z,24.30
2022-08-24T00:49:03.579Z,24.20
2022-08-24T00:49:36.285Z,24.30
2022-08-24T00:50:06.059Z,24.30
2022-08-24T00:50:25.983Z,24.30
2022-08-24T00:50:47.956Z,24.20
2022-08-24T00:51:06.853Z,24.20
2022-08-24T00:51:23.971Z,24.20
2022-08-24T00:52:03.872Z,24.20
2022-08-24T00:52:27.886Z,24.20
2022-08-24T00:52:41.872Z,24.20
2022-08-24T00:52:56.933Z,24.20
2022-08-24T00:53:11.118Z,24.20
2022-08-24T00:53:32.780Z,24.20
2022-08-24T00:53:57.525Z,24.20
2022-08-24T00:54:13.146Z,24.20
2022-08-24T00:54:26.912Z,24.20
2022-08-24T00:54:46.328Z,24.20
2022-08-24T00:55:01.343Z,24.20
2022-08-24T00:55:18.869Z,24.20
2022-08-24T00:55:36.863Z,24.20
2022-08-24T00:55:51.374Z,24.20
2022-08-24T00:56:07.231Z,24.20
2022-08-24T00:56:32.962Z,24.20
2022-08-24T00:56:48.573Z,24.20
2022-08-24T00:57:02.693Z,24.20
2022-08-24T00:57:16.112Z,24.20
2022-08-24T00:57:30.573Z,24.20
2022-08-24T00:57:43.220Z,24.20
2022-08-24T00:57:57.877Z,24.20
2022-08-24T00:58:16.303Z,24.20
2022-08-24T00:58:40.269Z,24.20
2022-08-24T00:58:57.537Z,24.20
2022-08-24T00:59:11.993Z,24.20
2022-08-24T00:59:26.652Z,24.20
2022-08-24T00:59:41.743Z,24.20
2022-08-24T01:00:02.364Z,24.20
2022-08-24T01:00:25.549Z,24.20
2022-08-24T01:00:41.336Z,24.20
2022-08-24T01:00:59.710Z,24.20
2022-08-24T01:01:13.571Z,24.10
2022-08-24T01:01:26.122Z,24.10
2022-08-24T01:01:38.136Z,24.10
2022-08-24T01:01:50.689Z,24.10
2022-08-24T01:02:15.676Z,24.10
2022-08-24T01:02:31.421Z,24.10
2022-08-24T01:02:45.240Z,24.20
2022-08-24T01:03:04.357Z,24.10
2022-08-24T01:03:16.299Z,24.20
2022-08-24T01:03:28.118Z,24.10
2022-08-24T01:03:40.081Z,24.10
2022-08-24T01:03:56.621Z,24.10
2022-08-24T01:04:08.812Z,24.20
2022-08-24T01:04:28.498Z,24.10
2022-08-24T01:04:45.371Z,24.10
2022-08-24T01:04:59.767Z,24.20
2022-08-24T01:05:12.273Z,24.20
2022-08-24T01:05:24.323Z,24.10
2022-08-24T01:05:36.959Z,24.20
2022-08-24T01:05:48.743Z,24.20
2022-08-24T01:06:00.527Z,24.10
2022-08-24T01:06:12.582Z,24.10
2022-08-24T01:06:24.754Z,24.10
2022-08-24T01:06:36.485Z,24.10
2022-08-24T01:06:49.914Z,24.10
2022-08-24T01:07:01.681Z,24.10
2022-08-24T01:07:13.481Z,24.10
2022-08-24T01:07:27.045Z,24.10
2022-08-24T01:07:39.250Z,24.10
2022-08-24T01:07:52.037Z,24.10
2022-08-24T01:08:04.795Z,24.10
2022-08-24T01:08:17.123Z,24.10
2022-08-24T01:08:28.967Z,24.10
2022-08-24T01:08:40.982Z,24.10
2022-08-24T01:08:56.672Z,24.10
2022-08-24T01:09:08.798Z,24.10
2022-08-24T01:09:22.279Z,24.10
2022-08-24T01:09:34.037Z,24.10
2022-08-24T01:09:46.395Z,24.10
2022-08-24T01:10:02.125Z,24.10
2022-08-24T01:10:16.300Z,24.10
2022-08-24T01:10:29.432Z,24.10
2022-08-24T01:10:52.901Z,24.10
2022-08-24T01:11:21.982Z,24.10
2022-08-24T01:11:34.126Z,24.10
2022-08-24T01:11:46.024Z,24.10
2022-08-24T01:11:58.615Z,24.10
2022-08-24T01:12:10.381Z,24.10
2022-08-24T01:12:24.490Z,24.10
2022-08-24T01:12:37.545Z,24.10
2022-08-24T01:13:00.427Z,24.10
2022-08-24T01:13:13.196Z,24.10
2022-08-24T01:13:25.419Z,24.10
2022-08-24T01:13:37.156Z,24.10
2022-08-24T01:13:49.974Z,24.10
2022-08-24T01:14:02.652Z,24.10
2022-08-24T01:14:14.429Z,24.10
2022-08-24T01:14:26.283Z,24.10
2022-08-24T01:14:38.142Z,24.10
2022-08-24T01:14:49.902Z,24.10
2022-08-24T01:15:02.245Z,24.10
2022-08-24T01:15:14.223Z,24.10
2022-08-24T01:15:26.089Z,24.10
2022-08-24T01:15:42.343Z,24.10
2022-08-24T01:15:56.867Z,24.10
2022-08-24T01:16:08.923Z,24.10
2022-08-24T01:16:41.040Z,24.10
2022-08-24T01:17:11.248Z,24.10
2022-08-24T01:17:41.433Z,24.10
2022-08-24T01:18:11.512Z,24.10
2022-08-24T01:18:44.304Z,24.10
2022-08-24T01:18:56.080Z,24.10
2022-08-24T01:19:17.480Z,24.10
2022-08-24T01:19:47.280Z,24.10
2022-08-24T01:19:59.157Z,24.10
2022-08-24T01:20:13.727Z,24.20
2022-08-24T01:20:26.869Z,24.10
2022-08-24T01:20:38.611Z,24.10
2022-08-24T01:21:07.908Z,24.10
2022-08-24T01:21:22.478Z,24.10
2022-08-24T01:21:41.392Z,24.10
2022-08-24T01:22:15.406Z,24.10
2022-08-24T01:22:39.134Z,24.10
2022-08-24T01:23:02.770Z,24.10
2022-08-24T01:23:36.713Z,24.10
2022-08-24T01:23:51.009Z,24.10
2022-08-24T01:24:04.421Z,24.00
2022-08-24T01:24:16.135Z,24.00
2022-08-24T01:24:27.879Z,24.00
2022-08-24T01:24:39.666Z,24.00
2022-08-24T01:24:51.435Z,24.00
2022-08-24T01:25:03.654Z,24.00
2022-08-24T01:25:15.715Z,24.00
2022-08-24T01:25:28.185Z,24.00
2022-08-24T01:25:39.963Z,24.00
2022-08-24T01:25:52.020Z,24.00
2022-08-24T01:26:05.841Z,23.90
2022-08-24T01:26:46.255Z,24.00
2022-08-24T01:26:58.625Z,23.90
2022-08-24T01:27:10.666Z,23.90
2022-08-24T01:27:27.789Z,23.90
2022-08-24T01:27:41.541Z,23.90
2022-08-24T01:27:55.889Z,23.90
2022-08-24T01:28:10.787Z,23.90
2022-08-24T01:28:27.448Z,23.90
2022-08-24T01:28:40.163Z,23.90
2022-08-24T01:28:56.172Z,23.90
2022-08-24T01:29:23.618Z,23.90
2022-08-24T01:29:35.641Z,23.80
2022-08-24T01:29:47.703Z,23.90
2022-08-24T01:30:00.057Z,23.90
2022-08-24T01:30:14.348Z,23.90
2022-08-24T01:30:36.220Z,23.80
2022-08-24T01:30:48.676Z,23.80
2022-08-24T01:31:00.555Z,23.80
2022-08-24T01:31:12.776Z,23.80
2022-08-24T01:31:24.640Z,23.80
2022-08-24T01:31:36.530Z,23.80
2022-08-24T01:31:48.511Z,23.80
2022-08-24T01:32:00.261Z,23.80
2022-08-24T01:32:12.692Z,23.80
2022-08-24T01:32:24.862Z,23.80
2022-08-24T01:32:36.646Z,23.80
2022-08-24T01:32:59.253Z,23.80
2022-08-24T01:33:11.945Z,23.80
2022-08-24T01:33:31.394Z,23.80
2022-08-24T01:33:43.162Z,23.80
2022-08-24T01:33:55.249Z,23.80
2022-08-24T01:34:07.223Z,23.80
2022-08-24T01:34:19.026Z,23.80
2022-08-24T01:34:31.047Z,23.80
2022-08-24T01:34:43.496Z,23.80
2022-08-24T01:34:55.944Z,23.70
2022-08-24T01:35:08.374Z,23.80
2022-08-24T01:35:20.206Z,23.80
2022-08-24T01:35:32.393Z,23.80
2022-08-24T01:35:44.194Z,23.80
2022-08-24T01:36:02.470Z,23.80
2022-08-24T01:36:28.374Z,23.70
2022-08-24T01:36:46.138Z,23.70
2022-08-24T01:36:58.193Z,23.70
2022-08-24T01:37:10.749Z,23.70
2022-08-24T01:37:22.647Z,23.70
2022-08-24T01:37:34.638Z,23.80
2022-08-24T01:37:46.318Z,23.80
2022-08-24T01:38:00.134Z,23.80
2022-08-24T01:38:12.366Z,23.70
2022-08-24T01:38:24.179Z,23.70
2022-08-24T01:38:35.976Z,23.80
2022-08-24T01:38:47.826Z,23.70
2022-08-24T01:39:14.515Z,23.80
2022-08-24T01:39:37.826Z,23.80
2022-08-24T01:39:50.316Z,23.80
2022-08-24T01:40:06.142Z,23.70
2022-08-24T01:40:17.977Z,23.70
2022-08-24T01:40:43.774Z,23.70
2022-08-24T01:40:58.009Z,23.70
2022-08-24T01:41:09.766Z,23.80
2022-08-24T01:41:28.693Z,23.80
2022-08-24T01:41:40.931Z,23.80
2022-08-24T01:41:52.700Z,23.70
2022-08-24T01:42:04.948Z,23.70
2022-08-24T01:42:17.053Z,23.70
2022-08-24T01:42:29.989Z,23.80
2022-08-24T01:42:47.826Z,23.80
2022-08-24T01:42:59.574Z,23.80
2022-08-24T01:43:11.420Z,23.80
2022-08-24T01:43:24.270Z,23.80
2022-08-24T01:43:37.249Z,23.70
2022-08-24T01:43:49.295Z,23.70
2022-08-24T01:44:01.066Z,23.70
2022-08-24T01:44:13.694Z,23.70
2022-08-24T01:44:26.693Z,23.70
2022-08-24T01:44:39.169Z,23.70
2022-08-24T01:44:51.173Z,23.80
2022-08-24T01:45:03.754Z,23.80
2022-08-24T01:45:15.813Z,23.80
2022-08-24T01:45:27.708Z,23.70
2022-08-24T01:45:39.564Z,23.70
2022-08-24T01:45:51.498Z,23.80
2022-08-24T01:46:03.364Z,23.80
2022-08-24T01:46:15.400Z,23.80
2022-08-24T01:46:27.630Z,23.80
2022-08-24T01:46:49.773Z,23.80
2022-08-24T01:47:01.977Z,23.80
2022-08-24T01:47:18.551Z,23.70
2022-08-24T01:47:30.398Z,23.70
2022-08-24T01:47:42.200Z,23.70
2022-08-24T01:47:54.048Z,23.70
2022-08-24T01:48:05.838Z,23.70
2022-08-24T01:48:22.714Z,23.70
2022-08-24T01:48:34.823Z,23.70
2022-08-24T01:48:46.670Z,23.70
2022-08-24T01:48:58.721Z,23.70
2022-08-24T01:49:10.570Z,23.70
2022-08-24T01:49:25.360Z,23.70
2022-08-24T01:49:40.221Z,23.70
2022-08-24T01:49:52.077Z,23.70
2022-08-24T01:50:04.094Z,23.70
2022-08-24T01:50:15.917Z,23.70
2022-08-24T01:50:28.477Z,23.70
2022-08-24T01:50:40.280Z,23.70
2022-08-24T01:50:52.737Z,23.70
2022-08-24T01:51:04.594Z,23.70
2022-08-24T01:51:16.404Z,23.70
2022-08-24T01:51:32.071Z,23.70
2022-08-24T01:51:44.226Z,23.70
2022-08-24T01:51:56.141Z,23.70
2022-08-24T01:52:08.975Z,23.70
2022-08-24T01:52:23.047Z,23.70
2022-08-24T01:52:54.930Z,23.70
2022-08-24T01:53:06.674Z,23.70
2022-08-24T01:53:19.925Z,23.70
2022-08-24T01:53:31.737Z,23.60
2022-08-24T01:53:43.499Z,23.70
2022-08-24T01:53:55.312Z,23.70
2022-08-24T01:54:07.325Z,23.60
2022-08-24T01:54:19.198Z,23.60
2022-08-24T01:54:31.349Z,23.60
2022-08-24T01:54:43.561Z,23.60
2022-08-24T01:54:55.524Z,23.60
2022-08-24T01:55:08.955Z,23.60
2022-08-24T01:55:22.502Z,23.60
2022-08-24T01:55:35.191Z,23.60
2022-08-24T01:55:47.022Z,23.60
2022-08-24T01:55:59.461Z,23.50
2022-08-24T01:56:11.540Z,23.60
2022-08-24T01:56:23.291Z,23.60
2022-08-24T01:56:35.572Z,23.50
2022-08-24T01:56:49.674Z,23.60
2022-08-24T01:57:01.972Z,23.50
2022-08-24T01:57:16.070Z,23.50
2022-08-24T01:57:28.200Z,23.50
2022-08-24T01:57:40.054Z,23.50
2022-08-24T01:57:51.810Z,23.50
2022-08-24T01:58:04.884Z,23.50
2022-08-24T01:58:16.753Z,23.50
2022-08-24T01:58:28.558Z,23.50
2022-08-24T01:58:45.135Z,23.50
2022-08-24T01:58:57.666Z,23.50
2022-08-24T01:59:09.592Z,23.50
2022-08-24T01:59:21.440Z,23.50
2022-08-24T01:59:33.154Z,23.50
2022-08-24T01:59:44.974Z,23.50
2022-08-24T01:59:56.740Z,23.50
2022-08-24T02:00:14.255Z,23.50
2022-08-24T02:00:26.129Z,23.50
2022-08-24T02:00:38.586Z,23.50
2022-08-24T02:00:50.365Z,23.50
2022-08-24T02:01:02.146Z,23.50
2022-08-24T02:01:20.535Z,23.50
2022-08-24T02:01:35.661Z,23.50
2022-08-24T02:01:51.884Z,23.50
2022-08-24T02:02:09.507Z,23.50
2022-08-24T02:02:23.467Z,23.50
2022-08-24T02:02:35.361Z,23.50
2022-08-24T02:02:47.445Z,23.40
2022-08-24T02:02:59.366Z,23.50
2022-08-24T02:03:11.529Z,23.50
2022-08-24T02:03:30.264Z,23.50
2022-08-24T02:03:42.506Z,23.40
2022-08-24T02:03:55.100Z,23.40
2022-08-24T02:04:08.749Z,23.40
2022-08-24T02:04:21.511Z,23.40
2022-08-24T02:04:36.600Z,23.40
2022-08-24T02:04:48.372Z,23.40
2022-08-24T02:05:00.222Z,23.40
2022-08-24T02:05:12.445Z,23.40
2022-08-24T02:05:24.524Z,23.40
2022-08-24T02:05:36.499Z,23.40
2022-08-24T02:05:48.414Z,23.40
2022-08-24T02:06:00.240Z,23.40
2022-08-24T02:06:12.258Z,23.40
2022-08-24T02:06:24.316Z,23.40
2022-08-24T02:06:36.821Z,23.40
2022-08-24T02:06:48.800Z,23.40
2022-08-24T02:07:00.592Z,23.40
2022-08-24T02:07:13.460Z,23.40
2022-08-24T02:07:25.263Z,23.30
2022-08-24T02:07:37.463Z,23.40
2022-08-24T02:07:49.281Z,23.40
2022-08-24T02:08:01.074Z,23.40
2022-08-24T02:08:12.827Z,23.40
2022-08-24T02:08:24.727Z,23.40
2022-08-24T02:08:36.574Z,23.40
2022-08-24T02:08:48.325Z,23.40
2022-08-24T02:09:00.350Z,23.40
2022-08-24T02:09:12.171Z,23.40
2022-08-24T02:09:23.944Z,23.40
2022-08-24T02:09:39.648Z,23.40
2022-08-24T02:09:51.390Z,23.40
2022-08-24T02:10:04.392Z,23.40
2022-08-24T02:10:16.441Z,23.40
2022-08-24T02:10:29.190Z,23.40
2022-08-24T02:10:40.942Z,23.40
2022-08-24T02:11:00.472Z,23.30
2022-08-24T02:11:12.238Z,23.30
2022-08-24T02:11:24.017Z,23.40
2022-08-24T02:11:35.895Z,23.30
2022-08-24T02:11:48.345Z,23.30
2022-08-24T02:12:00.171Z,23.30
2022-08-24T02:12:11.984Z,23.30
2022-08-24T02:12:23.829Z,23.30
2022-08-24T02:12:36.525Z,23.30
2022-08-24T02:12:57.694Z,23.40
2022-08-24T02:13:09.813Z,23.40
2022-08-24T02:13:21.568Z,23.40
2022-08-24T02:13:33.315Z,23.40
2022-08-24T02:13:45.097Z,23.30
2022-08-24T02:13:56.887Z,23.40
2022-08-24T02:14:09.375Z,23.40
2022-08-24T02:14:21.696Z,23.40
2022-08-24T02:14:33.621Z,23.40
2022-08-24T02:14:47.389Z,23.40
2022-08-24T02:14:59.576Z,23.30
2022-08-24T02:15:11.551Z,23.40
2022-08-24T02:15:35.834Z,23.30
2022-08-24T02:15:48.092Z,23.40
2022-08-24T02:16:00.928Z,23.40
2022-08-24T02:16:14.263Z,23.40
2022-08-24T02:16:27.620Z,23.30
2022-08-24T02:16:40.025Z,23.30
2022-08-24T02:16:51.821Z,23.40
2022-08-24T02:17:07.713Z,23.40
2022-08-24T02:17:20.181Z,23.40
2022-08-24T02:17:32.027Z,23.40
2022-08-24T02:17:44.097Z,23.40
2022-08-24T02:17:55.982Z,23.40
2022-08-24T02:18:15.825Z,23.30
2022-08-24T02:18:28.114Z,23.40
2022-08-24T02:18:43.000Z,23.30
2022-08-24T02:18:54.773Z,23.30
2022-08-24T02:19:06.628Z,23.30
2022-08-24T02:19:18.442Z,23.30
2022-08-24T02:19:30.178Z,23.30
2022-08-24T02:19:41.993Z,23.30
2022-08-24T02:19:54.002Z,23.30
2022-08-24T02:20:06.371Z,23.30
2022-08-24T02:20:19.016Z,23.30
2022-08-24T02:20:30.774Z,23.30
2022-08-24T02:20:42.690Z,23.30
2022-08-24T02:20:54.492Z,23.30
2022-08-24T02:21:08.727Z,23.20
2022-08-24T02:21:20.521Z,23.20
2022-08-24T02:21:32.358Z,23.20
2022-08-24T02:21:44.089Z,23.20
2022-08-24T02:21:55.827Z,23.20
2022-08-24T02:22:07.604Z,23.20
2022-08-24T02:22:19.798Z,23.20
2022-08-24T02:22:31.656Z,23.20
2022-08-24T02:22:43.423Z,23.20
2022-08-24T02:22:55.263Z,23.20
2022-08-24T02:23:07.125Z,23.20
2022-08-24T02:23:20.409Z,23.20
2022-08-24T02:23:32.386Z,23.20
2022-08-24T02:23:44.188Z,23.20
2022-08-24T02:23:55.948Z,23.20
2022-08-24T02:24:08.118Z,23.20
2022-08-24T02:24:19.865Z,23.20
2022-08-24T02:24:31.681Z,23.20
2022-08-24T02:24:43.472Z,23.20
2022-08-24T02:24:55.258Z,23.20
2022-08-24T02:25:07.305Z,23.20
2022-08-24T02:25:21.978Z,23.20
2022-08-24T02:25:33.856Z,23.20
2022-08-24T02:25:45.641Z,23.20
2022-08-24T02:25:57.394Z,23.20
2022-08-24T02:26:09.830Z,23.20
2022-08-24T02:26:21.738Z,23.20
2022-08-24T02:26:33.475Z,23.20
2022-08-24T02:26:45.323Z,23.20
2022-08-24T02:26:57.091Z,23.20
2022-08-24T02:27:08.881Z,23.20
2022-08-24T02:27:20.638Z,23.20
2022-08-24T02:27:32.349Z,23.20
2022-08-24T02:27:44.074Z,23.20
2022-08-24T02:27:57.837Z,23.20
2022-08-24T02:28:09.589Z,23.20
2022-08-24T02:28:21.352Z,23.20
2022-08-24T02:28:33.158Z,23.20
2022-08-24T02:28:44.946Z,23.20
2022-08-24T02:28:56.725Z,23.20
2022-08-24T02:29:10.991Z,23.20
2022-08-24T02:29:22.774Z,23.20
2022-08-24T02:29:34.549Z,23.20
2022-08-24T02:29:46.453Z,23.20
2022-08-24T02:29:58.222Z,23.20
2022-08-24T02:30:10.480Z,23.20
2022-08-24T02:30:22.290Z,23.20
2022-08-24T02:30:34.063Z,23.20
2022-08-24T02:30:46.099Z,23.20
2022-08-24T02:30:57.897Z,23.20
2022-08-24T02:31:10.840Z,23.20
2022-08-24T02:31:22.701Z,23.20
2022-08-24T02:31:36.908Z,23.20
2022-08-24T02:31:48.953Z,23.20
2022-08-24T02:32:00.798Z,23.20
2022-08-24T02:32:12.670Z,23.20
2022-08-24T02:32:24.424Z,23.20
2022-08-24T02:32:36.164Z,23.20
2022-08-24T02:32:47.914Z,23.20
2022-08-24T02:33:00.204Z,23.20
2022-08-24T02:33:12.925Z,23.20
2022-08-24T02:33:25.095Z,23.20
2022-08-24T02:33:37.827Z,23.20
2022-08-24T02:33:49.766Z,23.20
2022-08-24T02:34:01.621Z,23.20
2022-08-24T02:34:13.378Z,23.20
2022-08-24T02:34:25.770Z,23.20
2022-08-24T02:34:37.600Z,23.20
2022-08-24T02:34:49.361Z,23.20
2022-08-24T02:35:06.583Z,23.20
2022-08-24T02:35:18.334Z,23.20
2022-08-24T02:35:30.169Z,23.20
2022-08-24T02:35:42.230Z,23.10
2022-08-24T02:35:54.703Z,23.20
2022-08-24T02:36:07.044Z,23.20
2022-08-24T02:36:38.621Z,23.20
2022-08-24T02:36:50.470Z,23.10
2022-08-24T02:37:02.294Z,23.20
2022-08-24T02:37:14.731Z,23.20
2022-08-24T02:37:26.631Z,23.10
2022-08-24T02:37:43.395Z,23.20
2022-08-24T02:37:55.752Z,23.10
2022-08-24T02:38:07.899Z,23.10
2022-08-24T02:38:19.728Z,23.10
2022-08-24T02:38:31.564Z,23.10
2022-08-24T02:38:43.410Z,23.10
2022-08-24T02:38:56.009Z,23.10
2022-08-24T02:39:08.187Z,23.10
2022-08-24T02:39:20.306Z,23.10
2022-08-24T02:39:32.283Z,23.10
2022-08-24T02:39:44.053Z,23.10
2022-08-24T02:39:55.891Z,23.10
2022-08-24T02:40:08.668Z,23.10
2022-08-24T02:40:20.678Z,23.10
2022-08-24T02:40:32.532Z,23.10
2022-08-24T02:40:44.280Z,23.10
2022-08-24T02:40:57.878Z,23.10
2022-08-24T02:41:11.246Z,23.10
2022-08-24T02:41:25.626Z,23.10
2022-08-24T02:41:38.168Z,23.10
2022-08-24T02:41:51.476Z,23.10
2022-08-24T02:42:03.376Z,23.00
2022-08-24T02:42:15.527Z,23.10
2022-08-24T02:42:27.399Z,23.10
2022-08-24T02:42:39.893Z,23.10
2022-08-24T02:42:51.868Z,23.10
2022-08-24T02:43:03.962Z,23.10
2022-08-24T02:43:15.931Z,23.10
2022-08-24T02:43:27.744Z,23.10
2022-08-24T02:43:39.594Z,23.10
2022-08-24T02:43:52.264Z,23.10
2022-08-24T02:44:04.900Z,23.10
2022-08-24T02:44:16.723Z,23.10
2022-08-24T02:44:29.327Z,23.10
2022-08-24T02:44:41.231Z,23.10
2022-08-24T02:44:53.784Z,23.10
2022-08-24T02:45:07.473Z,23.20
2022-08-24T02:45:19.371Z,23.10
2022-08-24T02:45:31.144Z,23.10
2022-08-24T02:45:48.337Z,23.10
2022-08-24T02:46:02.120Z,23.10
2022-08-24T02:46:20.105Z,23.20
2022-08-24T02:46:32.025Z,23.20
2022-08-24T02:46:43.866Z,23.20
2022-08-24T02:46:55.710Z,23.10
2022-08-24T02:47:07.504Z,23.10
2022-08-24T02:47:19.265Z,23.10
2022-08-24T02:47:38.162Z,23.10
2022-08-24T02:47:50.903Z,23.10
2022-08-24T02:48:02.802Z,23.10
2022-08-24T02:48:14.556Z,23.10
2022-08-24T02:48:26.334Z,23.10
2022-08-24T02:48:38.104Z,23.10
2022-08-24T02:48:57.394Z,23.10
2022-08-24T02:49:23.192Z,23.10
2022-08-24T02:49:34.994Z,23.10
2022-08-24T02:49:47.642Z,23.10
2022-08-24T02:50:01.415Z,23.20
2022-08-24T02:50:14.958Z,23.20
2022-08-24T02:50:27.705Z,23.20
2022-08-24T02:50:40.430Z,23.20
2022-08-24T02:50:52.543Z,23.20
2022-08-24T02:51:04.842Z,23.20
2022-08-24T02:51:23.783Z,23.20
2022-08-24T02:51:43.886Z,23.20
2022-08-24T02:51:56.535Z,23.20
2022-08-24T02:52:08.344Z,23.20
2022-08-24T02:52:20.995Z,23.20
2022-08-24T02:52:32.764Z,23.20
2022-08-24T02:52:44.590Z,23.10
2022-08-24T02:52:56.568Z,23.10
2022-08-24T02:53:09.274Z,23.10
2022-08-24T02:53:21.434Z,23.10
2022-08-24T02:53:33.164Z,23.10
2022-08-24T02:53:44.881Z,23.10
2022-08-24T02:53:57.683Z,23.10
2022-08-24T02:54:09.927Z,23.10
2022-08-24T02:54:22.491Z,23.10
2022-08-24T02:54:34.752Z,23.10
2022-08-24T02:54:46.524Z,23.10
2022-08-24T02:54:58.288Z,23.10
2022-08-24T02:55:12.418Z,23.10
2022-08-24T02:55:24.417Z,23.10
2022-08-24T02:55:36.635Z,23.00
2022-08-24T02:55:48.553Z,23.00
2022-08-24T02:56:00.366Z,23.00
2022-08-24T02:56:12.284Z,23.00